Mescal, Arizona
Current Conditions -  °F | °C
As of 4:58 PM on Wednesday 22 Oct 2014 (Local Time) from KDMA Reporting Station
Clear Clear  
Wind Chill: 84°   Ceiling: Unl
Heat Index: 84°   Visibility: 10mi
Dew Point: 46°   Wind: 5mph
Humidity: 26%   Direction: 330°NNW
Pressure: 29.97"   Gusts: NA
Location:  32.1865°N, 110.265°W
Report Text: KDMA 222358Z AUTO 33004KT 10SM CLR 29/08 A2997 RMK AO2 SLP112 T02910075 10301 20274 55002 $
Loading
Personal Weather Stations






























Interactive Weather Map
Tropical Storm Tracking
New forecast layout! Learn more

10-Day Weather Forecast

Advertisements
Track Severe Weather on mobile